Time;durP1;ratioP1;P1;durP2;ratioP2;P2;SDS_P1;SDS_P2;PMS_P1;PMS_P2;Temp;Humidity;BMP_temperature;BMP_pressure;BME280_temperature;BME280_humidity;BME280_pressure;Samples;Min_cycle;Max_cycle;Signal;HPM_P1;HPM_P2
2023/12/31 00:00:08;;;;;;;10.88;6.70;;;;;;;-144.57;100.00;62443.72;5051533;28;20083;-61
2023/12/31 00:02:34;;;;;;;11.68;7.38;;;;;;;-144.57;100.00;62443.72;5050326;28;20041;-60
2023/12/31 00:05:00;;;;;;;11.50;6.95;;;;;;;-144.57;100.00;62443.72;5051290;28;20093;-61
2023/12/31 00:07:26;;;;;;;10.88;6.25;;;;;;;-144.57;100.00;62443.72;5051446;28;20065;-61
2023/12/31 00:09:53;;;;;;;11.38;6.85;;;;;;;-144.57;100.00;62443.72;5051005;28;20053;-61
2023/12/31 00:12:18;;;;;;;11.20;6.57;;;;;;;-144.57;100.00;62443.72;5050960;28;20052;-62
2023/12/31 00:14:44;;;;;;;12.32;7.10;;;;;;;-144.57;100.00;62443.72;5050853;28;20418;-60
2023/12/31 00:17:10;;;;;;;12.35;7.32;;;;;;;-144.57;100.00;62443.72;5051123;28;20044;-61
2023/12/31 00:19:36;;;;;;;13.57;7.18;;;;;;;-144.57;100.00;62443.72;5049537;28;20045;-61
2023/12/31 00:22:02;;;;;;;12.68;7.05;;;;;;;-144.57;100.00;62443.72;5049626;28;20086;-63
2023/12/31 00:24:28;;;;;;;13.10;7.38;;;;;;;-144.57;100.00;62443.72;5034925;28;20124;-62
2023/12/31 00:26:53;;;;;;;12.70;7.60;;;;;;;-144.57;100.00;62443.72;5049480;28;20044;-62
2023/12/31 00:29:19;;;;;;;11.52;7.28;;;;;;;-144.57;100.00;62443.72;5047162;28;20033;-61
2023/12/31 00:31:45;;;;;;;12.35;6.82;;;;;;;-144.57;100.00;62443.72;5054979;28;20056;-62
2023/12/31 00:34:11;;;;;;;12.23;6.80;;;;;;;-144.57;100.00;62443.72;5066274;28;20118;-61
2023/12/31 00:36:38;;;;;;;11.65;7.00;;;;;;;-144.57;100.00;62443.72;5049188;28;20068;-60
2023/12/31 00:39:04;;;;;;;12.10;7.05;;;;;;;-144.57;100.00;62443.72;5048643;28;20040;-62
2023/12/31 00:41:30;;;;;;;11.77;6.55;;;;;;;-144.57;100.00;62443.72;5049431;28;20041;-62
2023/12/31 00:43:57;;;;;;;12.13;6.25;;;;;;;-144.57;100.00;62443.72;5049723;28;20037;-60
2023/12/31 00:46:23;;;;;;;13.30;7.20;;;;;;;-144.57;100.00;62443.72;5050623;28;20055;-61
2023/12/31 00:48:48;;;;;;;11.07;6.25;;;;;;;-144.57;100.00;62443.72;5050056;28;20417;-61
2023/12/31 00:51:14;;;;;;;9.57;6.15;;;;;;;-144.57;100.00;62443.72;5047795;28;20047;-61
2023/12/31 00:53:40;;;;;;;10.65;6.07;;;;;;;-144.57;100.00;62443.72;5050293;28;20059;-60
2023/12/31 00:56:08;;;;;;;10.85;6.57;;;;;;;-144.57;100.00;62443.72;5049795;28;20049;-62
2023/12/31 00:58:35;;;;;;;11.20;6.57;;;;;;;-144.57;100.00;62443.72;5050323;28;20048;-61
2023/12/31 01:01:01;;;;;;;8.85;5.85;;;;;;;-144.57;100.00;62443.72;5049151;28;20065;-61
2023/12/31 01:03:26;;;;;;;9.32;6.68;;;;;;;-144.57;100.00;62443.72;5050741;28;20595;-61
2023/12/31 01:05:52;;;;;;;11.32;6.72;;;;;;;-144.57;100.00;62443.72;5049843;28;20052;-60
2023/12/31 01:08:18;;;;;;;11.20;6.13;;;;;;;-144.57;100.00;62443.72;5050518;28;20086;-61
2023/12/31 01:10:44;;;;;;;8.80;5.45;;;;;;;-144.57;100.00;62443.72;5051079;28;20073;-61
2023/12/31 01:13:09;;;;;;;11.23;6.47;;;;;;;-144.57;100.00;62443.72;5051048;28;20485;-61
2023/12/31 01:15:35;;;;;;;8.45;5.25;;;;;;;-144.57;100.00;62443.72;5050960;28;20033;-62
2023/12/31 01:18:01;;;;;;;11.18;6.35;;;;;;;-144.57;100.00;62443.72;5050682;28;20170;-61
2023/12/31 01:20:27;;;;;;;10.68;5.80;;;;;;;-144.57;100.00;62443.72;5066328;28;20049;-61
2023/12/31 01:22:52;;;;;;;10.55;6.45;;;;;;;-144.57;100.00;62443.72;5051200;28;20075;-60
2023/12/31 01:25:18;;;;;;;12.60;6.82;;;;;;;-144.57;100.00;62443.72;5050741;28;20503;-62
2023/12/31 01:27:45;;;;;;;12.30;6.20;;;;;;;-144.57;100.00;62443.72;5051083;28;20044;-60
2023/12/31 01:30:12;;;;;;;14.93;7.38;;;;;;;-144.57;100.00;62443.72;5052883;28;20045;-62
2023/12/31 01:32:38;;;;;;;13.55;7.20;;;;;;;-144.57;100.00;62443.72;5053549;28;20036;-61
2023/12/31 01:35:04;;;;;;;13.45;6.70;;;;;;;-144.57;100.00;62443.72;5053585;28;20045;-61
2023/12/31 01:37:31;;;;;;;12.93;6.90;;;;;;;-144.57;100.00;62443.72;5053597;28;20057;-62
2023/12/31 01:39:57;;;;;;;12.45;6.50;;;;;;;-144.57;100.00;62443.72;5053794;28;20049;-60
2023/12/31 01:42:23;;;;;;;14.90;7.32;;;;;;;-144.57;100.00;62443.72;5052430;28;20431;-62
2023/12/31 01:44:49;;;;;;;11.68;6.65;;;;;;;-144.57;100.00;62443.72;5053862;28;20425;-60
2023/12/31 01:47:17;;;;;;;10.85;6.40;;;;;;;-144.57;100.00;62443.72;5053580;28;20037;-62
2023/12/31 01:49:43;;;;;;;10.93;6.82;;;;;;;-144.57;100.00;62443.72;5052730;28;20414;-60
2023/12/31 01:52:09;;;;;;;10.20;6.32;;;;;;;-144.57;100.00;62443.72;5035551;28;20041;-64
2023/12/31 01:54:35;;;;;;;11.02;5.88;;;;;;;-144.57;100.00;62443.72;5053915;28;20041;-61
2023/12/31 01:57:01;;;;;;;11.07;6.63;;;;;;;-144.57;100.00;62443.72;5053935;28;20045;-62
2023/12/31 01:59:27;;;;;;;11.00;6.57;;;;;;;-144.57;100.00;62443.72;5053742;28;20136;-61
2023/12/31 02:01:53;;;;;;;11.57;6.45;;;;;;;-144.57;100.00;62443.72;5051818;28;20190;-62
2023/12/31 02:04:19;;;;;;;10.45;6.07;;;;;;;-144.57;100.00;62443.72;5052393;28;20497;-61
2023/12/31 02:06:45;;;;;;;10.52;6.65;;;;;;;-144.57;100.00;62443.72;5053470;28;20556;-61
2023/12/31 02:09:11;;;;;;;9.90;6.20;;;;;;;-144.57;100.00;62443.72;5052756;28;20045;-61
2023/12/31 02:11:37;;;;;;;9.90;6.28;;;;;;;-144.57;100.00;62443.72;5053557;28;20036;-62
2023/12/31 02:14:04;;;;;;;11.18;6.38;;;;;;;-144.57;100.00;62443.72;5051747;28;20091;-60
2023/12/31 02:16:30;;;;;;;9.88;5.97;;;;;;;-144.57;100.00;62443.72;5053348;28;20072;-61
2023/12/31 02:18:55;;;;;;;12.63;6.43;;;;;;;-144.57;100.00;62443.72;5035223;28;20043;-61
2023/12/31 02:21:21;;;;;;;10.65;6.20;;;;;;;-144.57;100.00;62443.72;5068874;28;20485;-60
2023/12/31 02:23:47;;;;;;;12.23;7.07;;;;;;;-144.57;100.00;62443.72;5035310;28;20029;-61
2023/12/31 02:26:13;;;;;;;12.27;6.63;;;;;;;-144.57;100.00;62443.72;5053387;28;20052;-63
2023/12/31 02:28:39;;;;;;;11.55;6.97;;;;;;;-144.57;100.00;62443.72;5053280;28;20052;-61
2023/12/31 02:31:06;;;;;;;11.95;6.40;;;;;;;-144.57;100.00;62443.72;5052877;28;20045;-61
2023/12/31 02:33:32;;;;;;;9.95;6.43;;;;;;;-144.57;100.00;62443.72;5052501;28;20049;-61
2023/12/31 02:35:59;;;;;;;11.32;6.75;;;;;;;-144.57;100.00;62443.72;5053255;28;20379;-61
2023/12/31 02:38:24;;;;;;;11.45;6.60;;;;;;;-144.57;100.00;62443.72;5050517;28;20083;-61
2023/12/31 02:40:50;;;;;;;11.18;6.15;;;;;;;-144.57;100.00;62443.72;5052791;28;20045;-62
2023/12/31 02:43:16;;;;;;;13.52;6.78;;;;;;;-144.57;100.00;62443.72;5052532;28;20410;-60
2023/12/31 02:45:42;;;;;;;13.43;6.93;;;;;;;-144.57;100.00;62443.72;5053138;28;20051;-62
2023/12/31 02:48:08;;;;;;;14.80;6.78;;;;;;;-144.57;100.00;62443.72;5053047;28;20135;-61
2023/12/31 02:50:34;;;;;;;10.55;6.60;;;;;;;-144.57;100.00;62443.72;5052368;28;20056;-61
2023/12/31 02:53:00;;;;;;;10.05;5.93;;;;;;;-144.57;100.00;62443.72;5051959;28;20070;-61
2023/12/31 02:55:25;;;;;;;11.07;5.50;;;;;;;-144.57;100.00;62443.72;5052772;28;20041;-60
2023/12/31 02:57:51;;;;;;;9.70;5.32;;;;;;;-144.57;100.00;62443.72;5068143;28;20552;-61
2023/12/31 03:00:18;;;;;;;11.30;5.47;;;;;;;-144.57;100.00;62443.72;5067968;28;20073;-61
2023/12/31 03:02:43;;;;;;;10.10;5.65;;;;;;;-144.57;100.00;62443.72;5051875;28;20136;-61
2023/12/31 03:05:12;;;;;;;11.32;6.38;;;;;;;-144.57;100.00;62443.72;5052576;28;20072;-60
2023/12/31 03:07:38;;;;;;;9.80;5.57;;;;;;;-144.57;100.00;62443.72;5052404;28;20037;-61
2023/12/31 03:10:06;;;;;;;8.18;5.07;;;;;;;-144.57;100.00;62443.72;5052629;28;20056;-61
2023/12/31 03:12:32;;;;;;;9.80;5.80;;;;;;;-144.57;100.00;62443.72;5049975;28;20048;-62
2023/12/31 03:14:58;;;;;;;8.40;5.25;;;;;;;-144.57;100.00;62443.72;5051664;28;20048;-61
2023/12/31 03:17:24;;;;;;;9.77;5.43;;;;;;;-144.57;100.00;62443.72;5052475;28;20045;-60
2023/12/31 03:19:50;;;;;;;7.35;5.03;;;;;;;-144.57;100.00;62443.72;5051797;28;20048;-59
2023/12/31 03:22:17;;;;;;;7.47;4.57;;;;;;;-144.57;100.00;62443.72;5050824;28;20179;-62
2023/12/31 03:24:43;;;;;;;8.52;5.13;;;;;;;-144.57;100.00;62443.72;5052278;28;20070;-61
2023/12/31 03:27:11;;;;;;;8.20;5.47;;;;;;;-144.57;100.00;62443.72;5050090;28;20041;-62
2023/12/31 03:29:38;;;;;;;7.82;5.03;;;;;;;-144.57;100.00;62443.72;5050664;28;20041;-61
2023/12/31 03:32:04;;;;;;;9.93;6.20;;;;;;;-144.57;100.00;62443.72;5051721;28;20045;-62
2023/12/31 03:34:30;;;;;;;5.97;4.05;;;;;;;-144.57;100.00;62443.72;5052136;28;20099;-61
2023/12/31 03:36:56;;;;;;;7.40;4.97;;;;;;;-144.57;100.00;62443.72;5048897;28;20056;-61
2023/12/31 03:39:22;;;;;;;8.20;4.70;;;;;;;-144.57;100.00;62443.72;5050189;28;20131;-60
2023/12/31 03:41:48;;;;;;;7.78;4.53;;;;;;;-144.57;100.00;62443.72;5050529;28;20063;-62
2023/12/31 03:44:14;;;;;;;7.13;4.65;;;;;;;-144.57;100.00;62443.72;5051888;28;20379;-61
2023/12/31 03:46:41;;;;;;;8.45;5.28;;;;;;;-144.57;100.00;62443.72;5051344;28;20032;-63
2023/12/31 03:49:08;;;;;;;6.82;4.82;;;;;;;-144.57;100.00;62443.72;5033566;28;20049;-61
2023/12/31 03:51:33;;;;;;;6.60;4.65;;;;;;;-144.57;100.00;62443.72;5051792;28;20056;-62
2023/12/31 03:53:59;;;;;;;7.57;4.32;;;;;;;-144.57;100.00;62443.72;5066664;28;20049;-61
2023/12/31 03:56:26;;;;;;;5.38;4.40;;;;;;;-144.57;100.00;62443.72;5049529;28;20461;-60
2023/12/31 03:58:52;;;;;;;7.40;4.65;;;;;;;-144.57;100.00;62443.72;5050191;28;20568;-60
2023/12/31 04:01:20;;;;;;;5.35;4.00;;;;;;;-144.57;100.00;62443.72;5063483;28;20495;-61
2023/12/31 04:03:46;;;;;;;6.57;4.35;;;;;;;-144.57;100.00;62443.72;5042803;28;20045;-60
2023/12/31 04:06:12;;;;;;;6.45;4.15;;;;;;;-144.57;100.00;62443.72;5049390;28;20495;-61
2023/12/31 04:08:38;;;;;;;6.88;4.00;;;;;;;-144.57;100.00;62443.72;5051212;28;20041;-60
2023/12/31 04:11:04;;;;;;;5.85;3.95;;;;;;;-144.57;100.00;62443.72;5051476;28;20090;-60
2023/12/31 04:13:29;;;;;;;5.32;3.80;;;;;;;-144.57;100.00;62443.72;5033327;28;20048;-60
2023/12/31 04:15:55;;;;;;;4.50;3.70;;;;;;;-144.57;100.00;62443.72;5049492;28;20041;-61
2023/12/31 04:18:21;;;;;;;4.72;3.70;;;;;;;-144.57;100.00;62443.72;5050981;28;20584;-61
2023/12/31 04:20:47;;;;;;;5.00;3.70;;;;;;;-144.57;100.00;62443.72;5051041;28;20048;-61
2023/12/31 04:23:14;;;;;;;5.22;4.00;;;;;;;-144.57;100.00;62443.72;5051114;28;20090;-61
2023/12/31 04:25:39;;;;;;;4.50;3.67;;;;;;;-144.57;100.00;62443.72;5049749;28;20098;-60
2023/12/31 04:28:06;;;;;;;7.25;4.05;;;;;;;-144.57;100.00;62443.72;5051034;28;20414;-62
2023/12/31 04:30:31;;;;;;;5.85;4.10;;;;;;;-144.57;100.00;62443.72;5051450;28;20049;-62
2023/12/31 04:32:58;;;;;;;4.35;3.25;;;;;;;-144.57;100.00;62443.72;5051268;28;20409;-59
2023/12/31 04:35:23;;;;;;;5.05;3.45;;;;;;;-144.57;100.00;62443.72;5050713;28;20425;-59
2023/12/31 04:37:49;;;;;;;4.72;3.53;;;;;;;-144.57;100.00;62443.72;5049708;28;20059;-61
2023/12/31 04:40:15;;;;;;;4.43;2.85;;;;;;;-144.57;100.00;62443.72;5051187;28;20044;-60
2023/12/31 04:42:41;;;;;;;5.90;3.53;;;;;;;-144.57;100.00;62443.72;5048178;28;20037;-61
2023/12/31 04:45:09;;;;;;;4.35;2.95;;;;;;;-144.57;100.00;62443.72;5051009;28;20037;-61
2023/12/31 04:47:36;;;;;;;4.25;3.17;;;;;;;-144.57;100.00;62443.72;5049618;28;20041;-61
2023/12/31 04:50:05;;;;;;;3.63;3.00;;;;;;;-144.57;100.00;62443.72;5049753;28;20052;-60
2023/12/31 04:52:32;;;;;;;5.18;3.08;;;;;;;-144.57;100.00;62443.72;5050099;28;20230;-61
2023/12/31 04:54:58;;;;;;;3.35;2.67;;;;;;;-144.57;100.00;62443.72;5051171;28;20119;-61
2023/12/31 04:57:24;;;;;;;3.63;3.08;;;;;;;-144.57;100.00;62443.72;5050511;28;20099;-62
2023/12/31 04:59:50;;;;;;;4.93;2.63;;;;;;;-144.57;100.00;62443.72;5049525;28;20486;-62
2023/12/31 05:02:16;;;;;;;3.03;2.60;;;;;;;-144.57;100.00;62443.72;5051803;28;20033;-63
2023/12/31 05:04:42;;;;;;;4.35;2.80;;;;;;;-144.57;100.00;62443.72;5054243;28;20053;-60
2023/12/31 05:07:09;;;;;;;4.22;2.75;;;;;;;-144.57;100.00;62443.72;5053431;28;20052;-61
2023/12/31 05:09:35;;;;;;;3.45;2.58;;;;;;;-144.57;100.00;62443.72;5054736;28;20048;-61
2023/12/31 05:12:01;;;;;;;3.35;2.20;;;;;;;-144.57;100.00;62443.72;5054757;28;20047;-59
2023/12/31 05:14:27;;;;;;;2.67;2.20;;;;;;;-144.57;100.00;62443.72;5053384;28;20040;-60
2023/12/31 05:16:53;;;;;;;2.80;2.10;;;;;;;-144.57;100.00;62443.72;5054711;28;20051;-61
2023/12/31 05:19:19;;;;;;;3.25;2.42;;;;;;;-144.57;100.00;62443.72;5054155;28;20037;-61
2023/12/31 05:21:45;;;;;;;3.13;2.05;;;;;;;-144.57;100.00;62443.72;5054268;28;20055;-59
2023/12/31 05:24:11;;;;;;;2.35;2.00;;;;;;;-144.57;100.00;62443.72;5054276;28;20124;-61
2023/12/31 05:26:38;;;;;;;2.10;1.90;;;;;;;-144.57;100.00;62443.72;5053595;28;20140;-61
2023/12/31 05:29:04;;;;;;;2.30;2.10;;;;;;;-144.57;100.00;62443.72;5052843;28;20064;-60
2023/12/31 05:31:29;;;;;;;2.35;1.90;;;;;;;-144.57;100.00;62443.72;5053157;28;20037;-61
2023/12/31 05:33:55;;;;;;;2.38;1.83;;;;;;;-144.57;100.00;62443.72;5053642;28;20106;-60
2023/12/31 05:36:21;;;;;;;1.70;1.50;;;;;;;-144.57;100.00;62443.72;5053850;28;20047;-59
2023/12/31 05:38:47;;;;;;;2.30;1.52;;;;;;;-144.57;100.00;62443.72;5053721;28;20057;-60
2023/12/31 05:41:13;;;;;;;2.10;1.70;;;;;;;-144.57;100.00;62443.72;5049075;28;20048;-62
2023/12/31 05:43:38;;;;;;;1.70;1.52;;;;;;;-144.57;100.00;62443.72;5054154;28;20391;-60
2023/12/31 05:46:04;;;;;;;5.35;2.08;;;;;;;-144.57;100.00;62443.72;5054077;28;20498;-60
2023/12/31 05:48:30;;;;;;;2.15;1.70;;;;;;;-144.57;100.00;62443.72;5053685;28;20136;-59
2023/12/31 05:50:56;;;;;;;1.73;1.45;;;;;;;-144.57;100.00;62443.72;5054130;28;20056;-60
2023/12/31 05:53:21;;;;;;;3.08;1.73;;;;;;;-144.57;100.00;62443.72;5053274;28;20049;-61
2023/12/31 05:55:47;;;;;;;2.45;1.80;;;;;;;-144.57;100.00;62443.72;5053449;28;20118;-62
2023/12/31 05:58:13;;;;;;;1.52;1.42;;;;;;;-144.57;100.00;62443.72;5049367;28;20132;-60
2023/12/31 06:00:39;;;;;;;1.60;1.50;;;;;;;-144.57;100.00;62443.72;5053668;28;20044;-61
2023/12/31 06:03:05;;;;;;;2.53;1.63;;;;;;;-144.57;100.00;62443.72;5052385;28;20049;-60
2023/12/31 06:05:31;;;;;;;1.70;1.50;;;;;;;-144.57;100.00;62443.72;5053675;28;20055;-61
2023/12/31 06:07:57;;;;;;;2.03;1.83;;;;;;;-144.57;100.00;62443.72;5052800;28;20037;-62
2023/12/31 06:10:22;;;;;;;2.58;1.60;;;;;;;-144.57;100.00;62443.72;5052417;28;20130;-60
2023/12/31 06:12:49;;;;;;;1.73;1.52;;;;;;;-144.57;100.00;62443.72;5052114;28;20402;-63
2023/12/31 06:15:15;;;;;;;1.52;1.42;;;;;;;-144.57;100.00;62443.72;5051311;28;20153;-61
2023/12/31 06:17:41;;;;;;;1.85;1.73;;;;;;;-144.57;100.00;62443.72;5051015;28;20125;-63
2023/12/31 06:20:07;;;;;;;2.28;1.65;;;;;;;-144.57;100.00;62443.72;5052670;28;20502;-61
2023/12/31 06:22:33;;;;;;;2.63;1.42;;;;;;;-144.57;100.00;62443.72;5052723;28;20037;-61
2023/12/31 06:24:59;;;;;;;2.83;1.65;;;;;;;-144.57;100.00;62443.72;5052627;28;20048;-61
2023/12/31 06:27:25;;;;;;;2.00;1.58;;;;;;;-144.57;100.00;62443.72;5052859;28;20110;-63
2023/12/31 06:29:51;;;;;;;2.35;1.80;;;;;;;-144.57;100.00;62443.72;5051503;28;20076;-60
2023/12/31 06:32:18;;;;;;;1.70;1.60;;;;;;;-144.57;100.00;62443.72;5052657;28;20045;-60
2023/12/31 06:34:44;;;;;;;1.85;1.65;;;;;;;-144.57;100.00;62443.72;5051527;28;20056;-61
2023/12/31 06:37:11;;;;;;;3.17;1.77;;;;;;;-144.57;100.00;62443.72;5050818;28;20053;-60
2023/12/31 06:39:37;;;;;;;4.30;1.95;;;;;;;-144.57;100.00;62443.72;5052443;28;20045;-61
2023/12/31 06:42:03;;;;;;;2.92;2.17;;;;;;;-144.57;100.00;62443.72;5052262;28;20037;-63
2023/12/31 06:44:29;;;;;;;2.80;2.17;;;;;;;-144.57;100.00;62443.72;5052012;28;20045;-61
2023/12/31 06:46:55;;;;;;;3.42;2.08;;;;;;;-144.57;100.00;62443.72;5051296;28;20041;-64
2023/12/31 06:49:21;;;;;;;3.25;1.80;;;;;;;-144.57;100.00;62443.72;5052588;28;20041;-63
2023/12/31 06:51:47;;;;;;;2.20;1.80;;;;;;;-144.57;100.00;62443.72;5052413;28;20041;-64
2023/12/31 06:54:14;;;;;;;2.20;1.60;;;;;;;-144.57;100.00;62443.72;5051685;28;20044;-62
2023/12/31 06:56:40;;;;;;;1.92;1.48;;;;;;;-144.57;100.00;62443.72;5051222;28;20414;-63
2023/12/31 06:59:06;;;;;;;1.95;1.60;;;;;;;-144.57;100.00;62443.72;5050464;28;20037;-63
2023/12/31 07:01:32;;;;;;;2.50;1.50;;;;;;;-144.57;100.00;62443.72;5052403;28;20178;-63
2023/12/31 07:03:58;;;;;;;2.13;1.70;;;;;;;-144.57;100.00;62443.72;5052337;28;20037;-62
2023/12/31 07:06:24;;;;;;;1.92;1.42;;;;;;;-144.57;100.00;62443.72;5052297;28;20433;-64
2023/12/31 07:08:50;;;;;;;2.83;1.45;;;;;;;-144.57;100.00;62443.72;5051972;28;20052;-62
2023/12/31 07:11:16;;;;;;;3.78;2.55;;;;;;;-144.57;100.00;62443.72;5052059;28;20158;-62
2023/12/31 07:13:43;;;;;;;1.40;1.30;;;;;;;-144.57;100.00;62443.72;5050687;28;20506;-58
2023/12/31 07:16:10;;;;;;;4.20;1.58;;;;;;;-144.57;100.00;62443.72;5083971;28;20086;-63
2023/12/31 07:18:36;;;;;;;1.63;1.40;;;;;;;-144.57;100.00;62443.72;5051910;28;20052;-62
2023/12/31 07:21:04;;;;;;;1.60;1.50;;;;;;;-144.57;100.00;62443.72;5050669;28;20552;-63
2023/12/31 07:23:30;;;;;;;2.17;1.40;;;;;;;-144.57;100.00;62443.72;5067298;28;20052;-63
2023/12/31 07:25:56;;;;;;;1.92;1.50;;;;;;;-144.57;100.00;62443.72;5051379;28;20135;-63
2023/12/31 07:28:22;;;;;;;1.70;1.60;;;;;;;-144.57;100.00;62443.72;5056270;28;20094;-61
2023/12/31 07:30:48;;;;;;;1.40;1.30;;;;;;;-144.57;100.00;62443.72;5051718;28;20052;-61
2023/12/31 07:33:14;;;;;;;1.58;1.40;;;;;;;-144.57;100.00;62443.72;5051351;28;20040;-63
2023/12/31 07:35:42;;;;;;;1.50;1.40;;;;;;;-144.57;100.00;62443.72;5053494;28;20029;-60
2023/12/31 07:38:10;;;;;;;1.80;1.30;;;;;;;-144.57;100.00;62443.72;5000629;28;20065;-60
2023/12/31 07:40:36;;;;;;;1.73;1.40;;;;;;;-144.57;100.00;62443.72;5050493;28;20052;-62
2023/12/31 07:43:02;;;;;;;1.60;1.50;;;;;;;-144.57;100.00;62443.72;5051029;28;20045;-61
2023/12/31 07:45:28;;;;;;;2.05;1.55;;;;;;;-144.57;100.00;62443.72;5048585;28;20048;-62
2023/12/31 07:47:54;;;;;;;1.95;1.50;;;;;;;-144.57;100.00;62443.72;5051478;28;20434;-61
2023/12/31 07:50:20;;;;;;;1.98;1.40;;;;;;;-144.57;100.00;62443.72;5051031;28;20071;-62
2023/12/31 07:52:46;;;;;;;1.63;1.45;;;;;;;-144.57;100.00;62443.72;5050963;28;20091;-65
2023/12/31 07:55:12;;;;;;;1.73;1.50;;;;;;;-144.57;100.00;62443.72;5050503;28;20052;-62
2023/12/31 07:57:38;;;;;;;2.05;1.55;;;;;;;-144.57;100.00;62443.72;5050189;28;20045;-63
2023/12/31 08:00:06;;;;;;;1.60;1.33;;;;;;;-144.57;100.00;62443.72;5051251;28;20045;-62
2023/12/31 08:02:38;;;;;;;2.35;1.50;;;;;;;-144.57;100.00;62443.72;5066546;28;20425;-62
2023/12/31 08:05:04;;;;;;;1.67;1.33;;;;;;;-144.57;100.00;62443.72;5050823;28;20132;-63
2023/12/31 08:07:30;;;;;;;1.65;1.30;;;;;;;-144.57;100.00;62443.72;5051419;28;20037;-60
2023/12/31 08:09:56;;;;;;;1.25;1.15;;;;;;;-144.57;100.00;62443.72;5050375;28;20151;-62
2023/12/31 08:12:23;;;;;;;1.13;1.02;;;;;;;-144.57;100.00;62443.72;5050050;28;20099;-64
2023/12/31 08:14:50;;;;;;;1.73;1.20;;;;;;;-144.57;100.00;62443.72;5049254;28;20401;-63
2023/12/31 08:17:15;;;;;;;1.45;1.15;;;;;;;-144.57;100.00;62443.72;5049826;28;20071;-63
2023/12/31 08:19:41;;;;;;;1.35;1.25;;;;;;;-144.57;100.00;62443.72;5031794;28;20063;-63
2023/12/31 08:22:07;;;;;;;2.97;1.50;;;;;;;-144.57;100.00;62443.72;5049255;28;20098;-64
2023/12/31 08:24:33;;;;;;;2.33;1.50;;;;;;;-144.57;100.00;62443.72;5049812;28;20057;-61
2023/12/31 08:26:59;;;;;;;1.77;1.52;;;;;;;-144.57;100.00;62443.72;5049850;28;20509;-63
2023/12/31 08:29:25;;;;;;;4.85;2.35;;;;;;;-144.57;100.00;62443.72;5049577;28;20159;-64
2023/12/31 08:31:54;;;;;;;1.88;1.67;;;;;;;-144.57;100.00;62443.72;5051292;28;20036;-63
2023/12/31 08:34:20;;;;;;;2.00;1.80;;;;;;;-144.57;100.00;62443.72;5050958;28;20051;-61
2023/12/31 08:36:46;;;;;;;2.83;2.22;;;;;;;-144.57;100.00;62443.72;5052088;28;20032;-62
2023/12/31 08:39:12;;;;;;;2.35;1.77;;;;;;;-144.57;100.00;62443.72;5055240;28;20506;-61
2023/12/31 08:41:38;;;;;;;1.88;1.70;;;;;;;-144.57;100.00;62443.72;5055108;28;20044;-63
2023/12/31 08:44:04;;;;;;;2.28;1.70;;;;;;;-144.57;100.00;62443.72;5054185;28;20040;-63
2023/12/31 08:46:30;;;;;;;2.08;1.90;;;;;;;-144.57;100.00;62443.72;5054273;28;20037;-61
2023/12/31 08:48:57;;;;;;;2.80;2.50;;;;;;;-144.57;100.00;62443.72;5053489;28;20037;-61
2023/12/31 08:51:23;;;;;;;2.67;2.45;;;;;;;-144.57;100.00;62443.72;5055566;28;20053;-61
2023/12/31 08:53:50;;;;;;;3.08;2.22;;;;;;;-144.57;100.00;62443.72;5053752;28;20098;-62
2023/12/31 08:56:16;;;;;;;5.32;3.00;;;;;;;-144.57;100.00;62443.72;5054578;28;20037;-62
2023/12/31 08:58:42;;;;;;;4.38;2.80;;;;;;;-144.57;100.00;62443.72;5053578;28;20091;-62
2023/12/31 09:01:08;;;;;;;4.88;3.08;;;;;;;-144.57;100.00;62443.72;5054700;28;20564;-62
2023/12/31 09:03:34;;;;;;;3.17;1.92;;;;;;;-144.57;100.00;62443.72;5054980;28;20095;-63
2023/12/31 09:06:00;;;;;;;2.83;2.30;;;;;;;-144.57;100.00;62443.72;5054627;28;20542;-62
2023/12/31 09:08:26;;;;;;;3.60;2.13;;;;;;;-144.57;100.00;62443.72;5054816;28;20103;-63
2023/12/31 09:10:54;;;;;;;2.13;1.50;;;;;;;-144.57;100.00;62443.72;5052810;28;20047;-64
2023/12/31 09:13:22;;;;;;;5.93;2.30;;;;;;;-144.57;100.00;62443.72;5053600;28;20045;-62
2023/12/31 09:15:48;;;;;;;5.68;3.88;;;;;;;-144.57;100.00;62443.72;5055090;28;20055;-63
2023/12/31 09:18:17;;;;;;;3.80;2.85;;;;;;;-144.57;100.00;62443.72;5053595;28;20040;-62
2023/12/31 09:20:43;;;;;;;3.17;2.47;;;;;;;-144.57;100.00;62443.72;5054310;28;20072;-62
2023/12/31 09:23:10;;;;;;;4.15;3.35;;;;;;;-144.57;100.00;62443.72;5053422;28;20071;-62
2023/12/31 09:25:36;;;;;;;2.78;2.33;;;;;;;-144.57;100.00;62443.72;5054717;28;20073;-62
2023/12/31 09:28:01;;;;;;;3.45;3.10;;;;;;;-144.57;100.00;62443.72;5052838;28;20562;-62
2023/12/31 09:30:27;;;;;;;1.92;1.73;;;;;;;-144.57;100.00;62443.72;5053698;28;20067;-62
2023/12/31 09:32:53;;;;;;;3.85;2.47;;;;;;;-144.57;100.00;62443.72;5053773;28;20510;-61
2023/12/31 09:35:19;;;;;;;3.78;2.42;;;;;;;-144.57;100.00;62443.72;5052978;28;20049;-61
2023/12/31 09:37:45;;;;;;;2.60;2.20;;;;;;;-144.57;100.00;62443.72;5053654;28;20068;-63
2023/12/31 09:40:11;;;;;;;3.10;2.28;;;;;;;-144.57;100.00;62443.72;5053805;28;20041;-66
2023/12/31 09:42:50;;;;;;;3.67;2.70;;;;;;;-144.57;100.00;62443.72;5052878;28;20074;-64
2023/12/31 09:45:21;;;;;;;;;;;;;;;-144.57;100.00;62443.72;5054316;28;20045;-64
2023/12/31 09:47:51;;;;;;;4.45;2.50;;;;;;;-144.57;100.00;62443.72;5053544;28;19924;-66
2023/12/31 09:50:21;;;;;;;2.35;2.10;;;;;;;-144.57;100.00;62443.72;5054348;28;20418;-65
2023/12/31 09:52:48;;;;;;;2.92;2.42;;;;;;;-144.57;100.00;62443.72;5053009;28;20067;-65
2023/12/31 09:55:20;;;;;;;2.75;2.25;;;;;;;-144.57;100.00;62443.72;5058288;28;20064;-62
2023/12/31 09:57:47;;;;;;;6.78;2.88;;;;;;;-144.57;100.00;62443.72;5072102;28;20117;-65
2023/12/31 10:00:14;;;;;;;2.08;1.88;;;;;;;-144.57;100.00;62443.72;5064224;28;20041;-65
2023/12/31 10:02:40;;;;;;;6.78;3.65;;;;;;;-144.57;100.00;62443.72;5053855;28;20037;-65
2023/12/31 10:05:06;;;;;;;5.13;3.90;;;;;;;-144.57;100.00;62443.72;5049242;28;20045;-64
2023/12/31 10:07:32;;;;;;;9.02;5.32;;;;;;;-144.57;100.00;62443.72;5053458;28;20044;-63
2023/12/31 10:09:58;;;;;;;5.57;3.03;;;;;;;-144.57;100.00;62443.72;5035587;28;20453;-62
2023/12/31 10:12:24;;;;;;;6.85;3.53;;;;;;;-144.57;100.00;62443.72;5084953;28;20132;-61
2023/12/31 10:14:51;;;;;;;4.75;3.03;;;;;;;-144.57;100.00;62443.72;5048982;28;20069;-62
2023/12/31 10:17:17;;;;;;;4.35;2.58;;;;;;;-144.57;100.00;62443.72;5051974;28;20040;-62
2023/12/31 10:19:45;;;;;;;5.15;2.95;;;;;;;-144.57;100.00;62443.72;5050456;28;20103;-63
2023/12/31 10:22:11;;;;;;;6.65;3.63;;;;;;;-144.57;100.00;62443.72;5051281;28;20548;-63
2023/12/31 10:24:37;;;;;;;3.95;2.38;;;;;;;-144.57;100.00;62443.72;5052507;28;20112;-63
2023/12/31 10:27:08;;;;;;;6.55;3.42;;;;;;;-144.57;100.00;62443.72;5059490;28;20039;-68
2023/12/31 10:29:35;;;;;;;4.93;2.90;;;;;;;-144.57;100.00;62443.72;5052751;28;20060;-63
2023/12/31 10:32:05;;;;;;;7.90;3.92;;;;;;;-144.57;100.00;62443.72;5051713;28;20144;-62
2023/12/31 10:34:32;;;;;;;;;;;;;;;-144.57;100.00;62443.72;5053606;28;20059;-62
2023/12/31 10:37:07;;;;;;;4.63;2.38;;;;;;;-144.57;100.00;62443.72;5052178;28;19920;-63
2023/12/31 10:39:36;;;;;;;4.45;2.22;;;;;;;-144.57;100.00;62443.72;5018676;28;20094;-61
2023/12/31 10:42:05;;;;;;;4.13;2.72;;;;;;;-144.57;100.00;62443.72;5052591;28;20788;-59
2023/12/31 10:44:34;;;;;;;5.88;3.75;;;;;;;-144.57;100.00;62443.72;5052179;28;20107;-61
2023/12/31 10:47:06;;;;;;;3.05;2.58;;;;;;;-144.57;100.00;62443.72;5052258;28;20033;-62
2023/12/31 10:49:34;;;;;;;4.43;2.50;;;;;;;-144.57;100.00;62443.72;5052547;28;20479;-61
2023/12/31 10:52:04;;;;;;;4.07;2.78;;;;;;;-144.57;100.00;62443.72;5050806;28;20033;-61
2023/12/31 10:54:44;;;;;;;4.03;2.85;;;;;;;-144.57;100.00;62443.72;5052614;28;20099;-62
2023/12/31 10:57:11;;;;;;;4.82;2.80;;;;;;;-144.57;100.00;62443.72;5052375;28;20037;-62
2023/12/31 10:59:40;;;;;;;3.67;3.00;;;;;;;-144.57;100.00;62443.72;5051896;28;20041;-63
2023/12/31 11:02:15;;;;;;;4.38;2.90;;;;;;;-144.57;100.00;62443.72;5052735;28;20041;-61